Time;durP1;ratioP1;P1;durP2;ratioP2;P2;SDS_P1;SDS_P2;PMS_P1;PMS_P2;Temp;Humidity;BMP_temperature;BMP_pressure;BME280_temperature;BME280_humidity;BME280_pressure;Samples;Min_cycle;Max_cycle;Signal;HPM_P1;HPM_P2
2023/04/19 00:01:10;;;;;;;9.40;8.38;;;10.30;99.90;;;;;;5070646;28;20213;-82
2023/04/19 00:03:38;;;;;;;9.07;8.18;;;10.30;99.90;;;;;;5071838;28;20224;-81
2023/04/19 00:06:09;;;;;;;8.98;8.05;;;10.30;99.90;;;;;;5073322;28;20221;-81
2023/04/19 00:08:37;;;;;;;10.27;9.27;;;10.30;99.90;;;;;;5072654;28;20249;-81
2023/04/19 00:11:05;;;;;;;9.10;8.23;;;10.30;99.90;;;;;;5073103;28;20205;-82
2023/04/19 00:13:35;;;;;;;9.70;8.68;;;10.20;99.90;;;;;;5072607;28;20227;-81
2023/04/19 00:16:03;;;;;;;8.73;7.80;;;10.20;99.90;;;;;;5072635;28;20209;-82
2023/04/19 00:18:32;;;;;;;9.50;8.60;;;10.20;99.90;;;;;;5072717;28;20232;-81
2023/04/19 00:21:01;;;;;;;9.30;8.40;;;10.20;99.90;;;;;;5072551;28;20201;-81
2023/04/19 00:23:29;;;;;;;10.60;9.60;;;10.20;99.90;;;;;;5072421;28;20244;-81
2023/04/19 00:25:57;;;;;;;10.75;9.65;;;10.10;99.90;;;;;;5072600;28;20216;-81
2023/04/19 00:28:26;;;;;;;11.80;10.65;;;10.10;99.90;;;;;;5072494;28;20232;-81
2023/04/19 00:30:55;;;;;;;10.50;9.48;;;10.00;99.90;;;;;;5072553;28;20297;-81
2023/04/19 00:33:24;;;;;;;9.93;9.02;;;10.00;99.90;;;;;;5072324;28;20225;-81
2023/04/19 00:35:52;;;;;;;10.32;9.32;;;10.00;99.90;;;;;;5072736;28;20236;-81
2023/04/19 00:38:20;;;;;;;10.48;9.45;;;10.00;99.90;;;;;;5072726;28;20207;-82
2023/04/19 00:40:48;;;;;;;11.52;9.98;;;10.00;99.90;;;;;;5072669;28;20291;-82
2023/04/19 00:43:18;;;;;;;11.98;9.77;;;10.00;99.90;;;;;;5072445;28;20227;-82
2023/04/19 00:45:50;;;;;;;11.02;10.02;;;9.90;99.90;;;;;;5072552;28;20288;-81
2023/04/19 00:48:20;;;;;;;10.35;9.38;;;10.00;99.90;;;;;;5072722;28;20285;-82
2023/04/19 00:50:48;;;;;;;10.75;9.50;;;10.00;99.90;;;;;;5072626;28;20196;-82
2023/04/19 00:53:16;;;;;;;11.25;9.25;;;10.00;99.90;;;;;;5072204;28;20224;-82
2023/04/19 00:55:45;;;;;;;9.63;8.73;;;10.00;99.90;;;;;;5072428;28;20216;-81
2023/04/19 00:58:13;;;;;;;12.88;10.38;;;10.00;99.90;;;;;;5072181;28;20213;-81
2023/04/19 01:00:41;;;;;;;10.43;9.32;;;10.00;99.90;;;;;;5074069;28;20211;-82
2023/04/19 01:03:10;;;;;;;10.90;9.80;;;10.00;99.90;;;;;;5076293;28;20225;-82
2023/04/19 01:05:40;;;;;;;12.75;10.85;;;10.00;99.90;;;;;;5076197;28;20205;-81
2023/04/19 01:08:08;;;;;;;13.02;11.20;;;10.00;99.90;;;;;;5075890;28;20221;-81
2023/04/19 01:10:36;;;;;;;9.15;8.45;;;9.90;99.90;;;;;;5076014;28;20216;-81
2023/04/19 01:13:05;;;;;;;13.02;10.82;;;9.90;99.90;;;;;;5075903;28;20320;-81
2023/04/19 01:15:33;;;;;;;10.75;9.65;;;9.80;99.90;;;;;;5076287;28;20209;-82
2023/04/19 01:18:02;;;;;;;12.07;10.88;;;9.80;99.90;;;;;;5075737;28;20197;-82
2023/04/19 01:20:30;;;;;;;20.25;11.63;;;9.80;99.90;;;;;;5076470;28;20205;-81
2023/04/19 01:23:00;;;;;;;9.80;8.82;;;9.70;99.90;;;;;;5075105;28;20229;-81
2023/04/19 01:25:29;;;;;;;13.30;10.85;;;9.70;99.90;;;;;;5075955;28;20209;-82
2023/04/19 01:27:57;;;;;;;11.13;10.13;;;9.60;99.90;;;;;;5075616;28;20217;-81
2023/04/19 01:30:25;;;;;;;12.90;11.50;;;9.60;99.90;;;;;;5075593;28;20209;-81
2023/04/19 01:32:53;;;;;;;12.35;11.13;;;9.50;99.90;;;;;;5075276;28;20233;-81
2023/04/19 01:35:22;;;;;;;11.98;10.23;;;9.50;99.90;;;;;;5075625;28;20201;-81
2023/04/19 01:37:52;;;;;;;12.00;10.88;;;9.50;99.90;;;;;;5075609;28;20217;-81
2023/04/19 01:40:23;;;;;;;11.13;10.10;;;9.50;99.90;;;;;;5075860;28;20189;-82
2023/04/19 01:42:52;;;;;;;10.55;9.50;;;9.40;99.90;;;;;;5075415;28;20315;-80
2023/04/19 01:45:20;;;;;;;13.80;11.98;;;9.40;99.90;;;;;;5075622;28;20215;-82
2023/04/19 01:47:48;;;;;;;12.90;11.18;;;9.40;99.90;;;;;;5075219;28;20207;-82
2023/04/19 01:50:17;;;;;;;10.95;9.85;;;9.40;99.90;;;;;;5075194;28;20236;-83
2023/04/19 01:52:45;;;;;;;12.88;11.07;;;9.30;99.90;;;;;;5075046;28;20288;-83
2023/04/19 01:55:13;;;;;;;13.23;11.85;;;9.30;99.90;;;;;;5075482;28;20207;-83
2023/04/19 01:57:43;;;;;;;15.48;12.43;;;9.30;99.90;;;;;;5075229;28;20213;-83
2023/04/19 02:00:12;;;;;;;12.65;11.25;;;9.40;99.90;;;;;;5075157;28;20203;-82
2023/04/19 02:02:40;;;;;;;12.57;11.38;;;9.40;99.90;;;;;;5074747;28;20232;-82
2023/04/19 02:05:09;;;;;;;13.30;12.02;;;9.40;99.90;;;;;;5075084;28;20216;-83
2023/04/19 02:07:37;;;;;;;14.20;12.80;;;9.40;99.90;;;;;;5075218;28;20272;-83
2023/04/19 02:10:09;;;;;;;13.00;11.77;;;9.40;99.90;;;;;;5074621;28;20235;-82
2023/04/19 02:12:38;;;;;;;13.75;12.43;;;9.40;99.90;;;;;;5074003;28;20225;-81
2023/04/19 02:15:09;;;;;;;17.27;12.45;;;9.40;99.90;;;;;;5074740;28;20216;-81
2023/04/19 02:17:37;;;;;;;13.75;12.25;;;9.50;99.90;;;;;;5074732;28;20201;-81
2023/04/19 02:20:08;;;;;;;13.35;11.98;;;9.40;99.90;;;;;;5074968;28;20197;-81
2023/04/19 02:22:36;;;;;;;16.95;14.10;;;9.50;99.90;;;;;;5074710;28;20252;-81
2023/04/19 02:25:04;;;;;;;14.20;12.70;;;9.50;99.90;;;;;;5074769;28;20263;-81
2023/04/19 02:27:33;;;;;;;15.88;12.07;;;9.50;99.90;;;;;;5074716;28;20208;-81
2023/04/19 02:30:01;;;;;;;14.75;12.63;;;9.50;99.90;;;;;;5074264;28;20225;-81
2023/04/19 02:32:30;;;;;;;14.05;12.50;;;9.50;99.90;;;;;;5074404;28;20315;-82
2023/04/19 02:34:59;;;;;;;16.13;13.10;;;9.50;99.90;;;;;;5074738;28;20239;-83
2023/04/19 02:37:27;;;;;;;14.38;12.90;;;9.50;99.90;;;;;;5074280;28;20236;-82
2023/04/19 02:39:55;;;;;;;16.13;13.10;;;9.60;99.90;;;;;;5074164;28;20229;-81
2023/04/19 02:42:24;;;;;;;14.57;13.05;;;9.50;99.90;;;;;;5074015;28;20355;-82
2023/04/19 02:44:52;;;;;;;13.73;12.45;;;9.50;99.90;;;;;;5074365;28;20205;-82
2023/04/19 02:47:20;;;;;;;16.08;13.88;;;9.60;99.90;;;;;;5074488;28;20207;-82
2023/04/19 02:49:50;;;;;;;13.65;12.07;;;9.60;99.90;;;;;;5074169;28;20256;-82
2023/04/19 02:52:18;;;;;;;17.58;13.27;;;9.60;99.90;;;;;;5073987;28;20231;-82
2023/04/19 02:54:47;;;;;;;13.77;12.43;;;9.60;99.90;;;;;;5073768;28;20212;-82
2023/04/19 02:57:15;;;;;;;14.05;12.70;;;9.60;99.90;;;;;;5074140;28;20289;-81
2023/04/19 02:59:43;;;;;;;13.85;12.63;;;9.60;99.90;;;;;;5074225;28;20290;-81
2023/04/19 03:02:11;;;;;;;18.27;14.40;;;9.60;99.90;;;;;;5073656;28;20229;-81
2023/04/19 03:04:42;;;;;;;14.55;13.07;;;9.60;99.90;;;;;;5073768;28;20215;-80
2023/04/19 03:07:12;;;;;;;17.48;14.00;;;9.60;99.90;;;;;;5074043;28;20225;-80
2023/04/19 03:09:40;;;;;;;14.35;12.95;;;9.60;99.90;;;;;;5073979;28;20252;-80
2023/04/19 03:12:08;;;;;;;17.20;14.60;;;9.70;99.90;;;;;;5073416;28;20243;-81
2023/04/19 03:14:36;;;;;;;15.20;13.18;;;9.70;99.90;;;;;;5073760;28;20209;-81
2023/04/19 03:17:05;;;;;;;14.55;13.20;;;9.70;99.90;;;;;;5073521;28;20216;-81
2023/04/19 03:19:33;;;;;;;17.50;15.68;;;9.80;99.90;;;;;;5073379;28;20209;-82
2023/04/19 03:22:01;;;;;;;15.10;13.55;;;9.70;99.90;;;;;;5073133;28;20229;-82
2023/04/19 03:24:31;;;;;;;17.35;14.43;;;9.80;99.90;;;;;;5072398;28;20308;-80
2023/04/19 03:27:03;;;;;;;15.27;13.68;;;9.80;99.90;;;;;;5073634;28;20209;-80
2023/04/19 03:29:31;;;;;;;16.75;14.55;;;9.80;99.90;;;;;;5073053;28;20217;-81
2023/04/19 03:31:59;;;;;;;20.02;16.70;;;9.90;99.90;;;;;;5073085;28;20232;-81
2023/04/19 03:34:27;;;;;;;16.02;14.43;;;9.80;99.90;;;;;;5073243;28;20220;-80
2023/04/19 03:36:56;;;;;;;29.77;14.95;;;9.90;99.90;;;;;;5073306;28;20296;-80
2023/04/19 03:39:24;;;;;;;19.50;15.82;;;9.90;99.90;;;;;;5073330;28;20209;-81
2023/04/19 03:41:54;;;;;;;20.13;16.08;;;9.90;99.90;;;;;;5073039;28;20224;-80
2023/04/19 03:44:22;;;;;;;17.90;15.90;;;9.90;99.90;;;;;;5073341;28;20266;-80
2023/04/19 03:46:50;;;;;;;16.65;15.05;;;9.80;99.90;;;;;;5073082;28;20193;-80
2023/04/19 03:49:18;;;;;;;22.63;17.30;;;9.80;99.90;;;;;;5073276;28;20289;-80
2023/04/19 03:51:46;;;;;;;20.17;16.58;;;9.80;99.90;;;;;;5072875;28;20216;-80
2023/04/19 03:54:15;;;;;;;18.25;16.10;;;9.70;99.90;;;;;;5072739;28;20212;-80
2023/04/19 03:56:43;;;;;;;18.58;15.95;;;9.70;99.90;;;;;;5072937;28;20284;-80
2023/04/19 03:59:13;;;;;;;18.88;16.95;;;9.60;99.90;;;;;;5072730;28;20209;-80
2023/04/19 04:01:41;;;;;;;18.85;16.70;;;9.60;99.90;;;;;;5072728;28;20205;-80
2023/04/19 04:04:10;;;;;;;23.25;18.90;;;9.60;99.90;;;;;;5072679;28;20234;-82
2023/04/19 04:06:39;;;;;;;20.33;18.27;;;9.60;99.90;;;;;;5072939;28;20205;-81
2023/04/19 04:09:07;;;;;;;21.95;19.02;;;9.60;99.90;;;;;;5072767;28;20197;-81
2023/04/19 04:11:35;;;;;;;20.85;18.60;;;9.60;99.90;;;;;;5072641;28;20223;-80
2023/04/19 04:14:04;;;;;;;20.17;17.98;;;9.60;99.90;;;;;;5072710;28;20205;-81
2023/04/19 04:16:34;;;;;;;26.60;18.00;;;9.60;99.90;;;;;;5072676;28;20209;-80
2023/04/19 04:19:02;;;;;;;27.15;18.20;;;9.60;99.90;;;;;;5072784;28;20270;-80
2023/04/19 04:21:30;;;;;;;19.85;16.48;;;9.60;99.90;;;;;;5072699;28;20215;-81
2023/04/19 04:24:00;;;;;;;20.52;18.33;;;9.60;99.90;;;;;;5072615;28;20215;-81
2023/04/19 04:26:32;;;;;;;18.95;16.88;;;9.60;99.90;;;;;;5072559;28;20197;-81
2023/04/19 04:29:01;;;;;;;21.38;17.65;;;9.60;99.90;;;;;;5072598;28;20220;-81
2023/04/19 04:31:30;;;;;;;18.45;16.58;;;9.60;99.90;;;;;;5072500;28;20328;-81
2023/04/19 04:34:00;;;;;;;18.40;15.95;;;9.60;99.90;;;;;;5072636;28;20239;-80
2023/04/19 04:36:28;;;;;;;20.60;18.02;;;9.60;99.90;;;;;;5072661;28;20201;-80
2023/04/19 04:38:57;;;;;;;22.30;17.52;;;9.60;99.90;;;;;;5072464;28;20201;-81
2023/04/19 04:41:25;;;;;;;17.33;15.65;;;9.60;99.90;;;;;;5072554;28;20216;-81
2023/04/19 04:43:54;;;;;;;18.02;16.10;;;9.60;99.90;;;;;;5072267;28;20205;-81
2023/04/19 04:46:39;;;;;;;23.17;16.75;;;9.60;99.90;;;;;;5073128;28;20292;-81
2023/04/19 04:49:09;;;;;;;17.35;15.63;;;9.60;99.90;;;;;;5072369;28;20209;-81
2023/04/19 04:51:37;;;;;;;19.17;17.13;;;9.60;99.90;;;;;;5071652;28;20224;-81
2023/04/19 04:54:05;;;;;;;19.92;16.65;;;9.60;99.90;;;;;;5071859;28;20215;-81
2023/04/19 04:56:33;;;;;;;19.08;17.08;;;9.60;99.90;;;;;;5072678;28;20209;-81
2023/04/19 04:59:02;;;;;;;18.40;16.60;;;9.50;99.90;;;;;;5072486;28;20240;-81
2023/04/19 05:01:30;;;;;;;19.60;16.17;;;9.50;99.90;;;;;;5071840;28;20251;-80
2023/04/19 05:03:58;;;;;;;19.85;17.20;;;9.50;99.90;;;;;;5071585;28;20216;-80
2023/04/19 05:06:28;;;;;;;17.83;16.13;;;9.50;99.90;;;;;;5072076;28;20224;-81
2023/04/19 05:08:56;;;;;;;26.63;16.52;;;9.50;99.90;;;;;;5072102;28;20201;-80
2023/04/19 05:11:24;;;;;;;20.05;17.58;;;9.50;99.90;;;;;;5072164;28;20315;-81
2023/04/19 05:13:54;;;;;;;17.17;15.43;;;9.50;99.90;;;;;;5072397;28;20205;-81
2023/04/19 05:16:23;;;;;;;20.55;18.20;;;9.50;99.90;;;;;;5072126;28;20237;-81
2023/04/19 05:18:51;;;;;;;19.50;16.52;;;9.50;99.90;;;;;;5072018;28;20213;-81
2023/04/19 05:21:19;;;;;;;20.38;17.67;;;9.50;99.90;;;;;;5072089;28;20209;-81
2023/04/19 05:23:52;;;;;;;22.42;19.00;;;9.50;99.90;;;;;;5071738;28;20232;-81
2023/04/19 05:26:20;;;;;;;19.52;17.02;;;9.50;99.90;;;;;;5072269;28;20259;-81
2023/04/19 05:28:48;;;;;;;20.63;18.30;;;9.50;99.90;;;;;;5071971;28;20205;-81
2023/04/19 05:31:17;;;;;;;19.35;17.13;;;9.50;99.90;;;;;;5071571;28;20266;-82
2023/04/19 05:33:45;;;;;;;19.02;17.08;;;9.50;99.90;;;;;;5071504;28;20323;-82
2023/04/19 05:36:13;;;;;;;18.58;16.73;;;9.50;99.90;;;;;;5071793;28;20211;-81
2023/04/19 05:38:41;;;;;;;20.45;18.45;;;9.50;99.90;;;;;;5072237;28;20202;-81
2023/04/19 05:41:12;;;;;;;18.77;16.95;;;9.50;99.90;;;;;;5071989;28;20193;-81
2023/04/19 05:43:40;;;;;;;19.80;17.65;;;9.50;99.90;;;;;;5071758;28;20233;-81
2023/04/19 05:46:08;;;;;;;20.63;18.63;;;9.50;99.90;;;;;;5071893;28;20205;-81
2023/04/19 05:48:37;;;;;;;19.45;17.30;;;9.50;99.90;;;;;;5074711;28;20213;-81
2023/04/19 05:51:05;;;;;;;21.95;19.38;;;9.50;99.90;;;;;;5075293;28;20233;-81
2023/04/19 05:53:33;;;;;;;21.67;17.85;;;9.50;99.90;;;;;;5075133;28;20248;-81
2023/04/19 05:56:01;;;;;;;20.25;18.13;;;9.50;99.90;;;;;;5075142;28;20213;-81
2023/04/19 05:58:31;;;;;;;20.67;18.67;;;9.60;99.90;;;;;;5074925;28;20205;-81
2023/04/19 06:00:59;;;;;;;20.58;18.45;;;9.60;99.90;;;;;;5075423;28;20208;-81
2023/04/19 06:03:28;;;;;;;20.60;18.50;;;9.60;99.90;;;;;;5074723;28;20229;-81
2023/04/19 06:05:59;;;;;;;20.75;18.25;;;9.60;99.90;;;;;;5075255;28;20274;-81
2023/04/19 06:08:27;;;;;;;20.90;18.73;;;9.60;99.90;;;;;;5075331;28;20213;-81
2023/04/19 06:10:56;;;;;;;20.40;18.45;;;9.70;99.90;;;;;;5075024;28;20235;-81
2023/04/19 06:13:36;;;;;;;22.38;20.13;;;9.70;99.90;;;;;;5074900;28;20235;-81
2023/04/19 06:16:05;;;;;;;20.45;18.35;;;9.70;99.90;;;;;;5074867;28;20215;-81
2023/04/19 06:18:35;;;;;;;19.15;17.42;;;9.80;99.90;;;;;;5075298;28;20262;-81
2023/04/19 06:21:05;;;;;;;21.10;18.92;;;9.80;99.90;;;;;;5074524;28;20235;-81
2023/04/19 06:23:34;;;;;;;20.40;18.45;;;9.80;99.90;;;;;;5074393;28;20239;-82
2023/04/19 06:26:02;;;;;;;23.27;19.55;;;9.80;99.90;;;;;;5074698;28;20201;-81
2023/04/19 06:28:30;;;;;;;20.00;17.92;;;9.80;99.90;;;;;;5074721;28;20209;-81
2023/04/19 06:31:00;;;;;;;21.60;19.42;;;9.80;99.90;;;;;;5074472;28;20220;-81
2023/04/19 06:33:29;;;;;;;25.50;20.23;;;9.80;99.90;;;;;;5074739;28;20225;-81
2023/04/19 06:35:57;;;;;;;21.70;19.23;;;9.80;99.90;;;;;;5074279;28;20212;-81
2023/04/19 06:38:25;;;;;;;21.92;19.67;;;9.80;99.90;;;;;;5074383;28;20209;-80
2023/04/19 06:40:54;;;;;;;21.83;19.50;;;9.80;99.90;;;;;;5074607;28;20201;-79
2023/04/19 06:43:22;;;;;;;19.77;17.83;;;9.80;99.90;;;;;;5074138;28;20217;-80
2023/04/19 06:45:58;;;;;;;20.83;18.73;;;9.70;99.90;;;;;;5075093;28;20197;-80
2023/04/19 06:48:27;;;;;;;19.63;17.58;;;9.70;99.90;;;;;;5074623;28;20200;-80
2023/04/19 06:50:56;;;;;;;29.45;19.88;;;9.70;99.90;;;;;;5074084;28;20248;-80
2023/04/19 06:53:25;;;;;;;22.05;20.00;;;9.70;99.90;;;;;;5073885;28;20229;-80
2023/04/19 06:56:00;;;;;;;27.63;19.20;;;9.60;99.90;;;;;;5073976;28;20209;-81
2023/04/19 06:58:28;;;;;;;18.77;17.05;;;9.50;99.90;;;;;;5074237;28;20283;-81
2023/04/19 07:00:57;;;;;;;23.08;19.20;;;9.50;99.90;;;;;;5074565;28;20197;-81
2023/04/19 07:03:27;;;;;;;20.75;18.75;;;9.40;99.90;;;;;;5073851;28;20233;-81
2023/04/19 07:05:56;;;;;;;27.35;20.02;;;9.40;99.90;;;;;;5073022;28;20205;-81
2023/04/19 07:08:24;;;;;;;21.55;19.35;;;9.40;99.90;;;;;;5071727;28;20266;-81
2023/04/19 07:11:02;;;;;;;20.73;18.33;;;9.30;99.90;;;;;;5071758;28;20228;-81
2023/04/19 07:13:30;;;;;;;21.17;18.98;;;9.40;99.90;;;;;;5073846;28;20225;-81
2023/04/19 07:15:58;;;;;;;22.38;19.23;;;9.30;99.90;;;;;;5073830;28;20212;-81
2023/04/19 07:18:28;;;;;;;21.98;19.67;;;9.30;99.90;;;;;;5073696;28;20283;-81
2023/04/19 07:20:56;;;;;;;19.38;17.48;;;9.30;99.90;;;;;;5074044;28;20236;-80
2023/04/19 07:23:25;;;;;;;21.30;18.80;;;9.40;99.90;;;;;;5073034;28;20229;-82
2023/04/19 07:25:53;;;;;;;18.23;16.45;;;9.40;99.90;;;;;;5073638;28;20209;-81
2023/04/19 07:28:21;;;;;;;21.70;16.90;;;9.40;99.90;;;;;;5073254;28;20291;-81
2023/04/19 07:30:49;;;;;;;17.95;16.17;;;9.40;99.90;;;;;;5073119;28;20201;-81
2023/04/19 07:33:18;;;;;;;17.85;16.23;;;9.40;99.90;;;;;;5072936;28;20316;-82
2023/04/19 07:35:48;;;;;;;18.55;16.20;;;9.40;99.90;;;;;;5073106;28;20205;-81
2023/04/19 07:38:16;;;;;;;17.33;15.63;;;9.50;99.90;;;;;;5073717;28;20201;-82
2023/04/19 07:40:44;;;;;;;17.55;15.70;;;9.50;99.90;;;;;;5073443;28;20207;-83
2023/04/19 07:43:13;;;;;;;18.58;15.20;;;9.50;99.90;;;;;;5073183;28;20217;-83
2023/04/19 07:45:41;;;;;;;14.40;13.10;;;9.50;99.90;;;;;;5073225;28;20209;-82
2023/04/19 07:48:09;;;;;;;14.93;13.45;;;9.50;99.90;;;;;;5072901;28;20205;-81
2023/04/19 07:50:38;;;;;;;14.52;13.13;;;9.40;99.90;;;;;;5073266;28;20209;-82
2023/04/19 07:53:08;;;;;;;13.27;11.82;;;9.40;99.90;;;;;;5072668;28;20319;-82
2023/04/19 07:55:36;;;;;;;14.23;11.02;;;9.50;99.90;;;;;;5072619;28;20201;-82
2023/04/19 07:58:05;;;;;;;13.48;12.18;;;9.50;99.90;;;;;;5072747;28;20205;-82
2023/04/19 08:00:35;;;;;;;13.48;11.43;;;9.50;99.90;;;;;;5072987;28;20205;-84
2023/04/19 08:03:04;;;;;;;14.23;11.40;;;9.50;99.90;;;;;;5072691;28;20232;-83
2023/04/19 08:05:33;;;;;;;13.30;12.07;;;9.50;99.90;;;;;;5072975;28;20219;-84
2023/04/19 08:08:01;;;;;;;13.52;12.32;;;9.50;99.90;;;;;;5072470;28;20239;-84
2023/04/19 08:10:31;;;;;;;14.00;12.70;;;9.60;99.90;;;;;;5072634;28;20224;-83
2023/04/19 08:12:59;;;;;;;18.15;13.70;;;9.60;99.90;;;;;;5072133;28;20239;-83
2023/04/19 08:15:33;;;;;;;14.20;12.90;;;9.60;99.90;;;;;;5072565;28;20216;-84
2023/04/19 08:18:05;;;;;;;13.60;12.25;;;9.60;99.90;;;;;;5073322;28;20215;-83
2023/04/19 08:20:34;;;;;;;13.27;11.98;;;9.70;99.90;;;;;;5072789;28;20209;-83
2023/04/19 08:23:05;;;;;;;14.20;12.80;;;9.70;99.90;;;;;;5072344;28;20321;-84
2023/04/19 08:25:51;;;;;;;13.98;12.60;;;9.70;99.90;;;;;;5072745;28;20217;-83
2023/04/19 08:28:19;;;;;;;13.57;12.20;;;9.70;99.90;;;;;;5072463;28;20212;-84
2023/04/19 08:30:47;;;;;;;14.40;12.98;;;9.80;99.90;;;;;;5072746;28;20266;-83
2023/04/19 08:33:16;;;;;;;14.05;12.85;;;9.80;99.90;;;;;;5071858;28;20271;-84
2023/04/19 08:35:45;;;;;;;13.50;12.25;;;9.90;99.90;;;;;;5072605;28;20205;-83
2023/04/19 08:38:13;;;;;;;12.57;11.38;;;9.90;99.90;;;;;;5072493;28;20202;-83
2023/04/19 08:40:46;;;;;;;13.32;11.65;;;9.90;99.90;;;;;;5072670;28;20212;-84
2023/04/19 08:43:17;;;;;;;13.65;12.18;;;9.90;99.90;;;;;;5072876;28;20248;-83
2023/04/19 08:45:47;;;;;;;15.40;11.90;;;10.00;99.90;;;;;;5072788;28;20216;-84
2023/04/19 08:48:16;;;;;;;15.68;11.73;;;10.00;99.90;;;;;;5072306;28;20280;-83
2023/04/19 08:50:45;;;;;;;12.27;10.68;;;10.00;99.90;;;;;;5072668;28;20310;-81
2023/04/19 08:53:34;;;;;;;12.07;10.90;;;10.00;99.90;;;;;;5071820;28;20225;-83
2023/04/19 08:56:03;;;;;;;10.65;9.68;;;10.00;99.90;;;;;;5072313;28;20208;-83
2023/04/19 08:58:36;;;;;;;11.88;10.15;;;10.00;99.90;;;;;;5072573;28;20208;-82
2023/04/19 09:01:24;;;;;;;15.40;11.40;;;10.00;99.90;;;;;;5072229;28;20201;-82
2023/04/19 09:04:05;;;;;;;10.77;9.77;;;10.00;99.90;;;;;;5072079;28;20201;-81
2023/04/19 09:06:54;;;;;;;10.23;9.18;;;10.00;99.90;;;;;;5071749;28;20204;-82
2023/04/19 09:09:24;;;;;;;9.57;8.75;;;9.90;99.90;;;;;;5072402;28;20211;-82
2023/04/19 09:11:56;;;;;;;9.93;9.02;;;9.80;99.90;;;;;;5072071;28;20243;-82
2023/04/19 09:14:27;;;;;;;10.40;9.35;;;9.70;99.90;;;;;;5072005;28;20213;-82
2023/04/19 09:17:12;;;;;;;8.57;7.88;;;9.80;99.90;;;;;;5072042;28;20205;-82
2023/04/19 09:19:47;;;;;;;7.90;7.20;;;9.70;99.90;;;;;;5072282;28;20208;-81
2023/04/19 09:22:16;;;;;;;8.75;7.80;;;9.70;99.90;;;;;;5072779;28;20228;-83
2023/04/19 09:24:44;;;;;;;7.05;6.45;;;9.70;99.90;;;;;;5076039;28;20289;-82
2023/04/19 09:27:33;;;;;;;7.95;7.15;;;9.80;99.90;;;;;;5075901;28;20201;-83
2023/04/19 09:30:06;;;;;;;9.02;8.07;;;9.80;99.90;;;;;;5075859;28;20212;-82
2023/04/19 09:32:47;;;;;;;7.85;7.05;;;9.70;99.90;;;;;;5075337;28;20231;-81
2023/04/19 09:35:16;;;;;;;8.65;7.82;;;9.70;99.90;;;;;;5075490;28;20225;-81
2023/04/19 09:37:59;;;;;;;8.73;8.00;;;9.80;99.90;;;;;;5075609;28;20215;-81
2023/04/19 09:40:34;;;;;;;8.45;7.75;;;9.90;99.90;;;;;;5075319;28;20237;-81
2023/04/19 09:43:02;;;;;;;9.52;7.90;;;9.90;99.90;;;;;;5075080;28;20221;-81
2023/04/19 09:45:42;;;;;;;7.85;7.20;;;10.00;99.90;;;;;;5075651;28;20201;-82
2023/04/19 09:48:11;;;;;;;9.27;8.25;;;10.10;99.90;;;;;;5075481;28;20211;-82
2023/04/19 09:50:52;;;;;;;10.07;9.07;;;10.10;99.90;;;;;;5075543;28;20219;-82
2023/04/19 09:53:33;;;;;;;9.65;8.70;;;10.20;99.90;;;;;;5074867;28;20231;-82
2023/04/19 09:56:04;;;;;;;9.60;8.80;;;10.30;99.90;;;;;;5075215;28;20209;-82
2023/04/19 09:58:32;;;;;;;10.27;9.27;;;10.40;99.90;;;;;;5075137;28;20209;-82
2023/04/19 10:01:20;;;;;;;9.05;8.35;;;10.40;99.90;;;;;;5075394;28;20205;-82
2023/04/19 10:03:49;;;;;;;8.18;7.38;;;10.40;99.90;;;;;;5075241;28;20232;-83
2023/04/19 10:06:20;;;;;;;10.05;9.05;;;10.40;99.90;;;;;;5075075;28;20208;-82
2023/04/19 10:08:54;;;;;;;9.07;8.23;;;10.50;99.90;;;;;;5075480;28;20208;-82
2023/04/19 10:11:24;;;;;;;8.73;7.93;;;10.50;99.90;;;;;;5075060;28;20212;-82
2023/04/19 10:13:57;;;;;;;7.80;7.10;;;10.50;99.90;;;;;;5074921;28;20237;-83
2023/04/19 10:16:27;;;;;;;9.85;8.23;;;10.50;99.90;;;;;;5075183;28;20208;-83
2023/04/19 10:18:56;;;;;;;7.30;6.60;;;10.50;99.90;;;;;;5074980;28;20243;-82
2023/04/19 10:21:26;;;;;;;7.40;6.65;;;10.50;99.90;;;;;;5074627;28;20209;-82
2023/04/19 10:23:55;;;;;;;7.43;6.82;;;10.50;99.90;;;;;;5074717;28;20220;-82
2023/04/19 10:26:24;;;;;;;7.53;6.85;;;10.50;99.90;;;;;;5075401;28;20213;-82
2023/04/19 10:28:54;;;;;;;8.05;7.35;;;10.60;99.90;;;;;;5074907;28;20209;-82
2023/04/19 10:31:22;;;;;;;8.93;8.07;;;10.70;99.90;;;;;;5074767;28;20215;-82
2023/04/19 10:33:52;;;;;;;8.35;7.57;;;10.80;99.90;;;;;;5073814;28;20241;-82
2023/04/19 10:36:21;;;;;;;11.15;8.15;;;10.80;99.90;;;;;;5074711;28;20209;-82
2023/04/19 10:38:52;;;;;;;9.40;8.30;;;10.90;99.90;;;;;;5074717;28;20204;-82
2023/04/19 10:41:20;;;;;;;9.63;8.63;;;10.80;99.90;;;;;;5074716;28;20208;-82
2023/04/19 10:44:09;;;;;;;9.25;8.32;;;10.80;99.90;;;;;;5074324;28;20229;-82
2023/04/19 10:46:39;;;;;;;10.85;8.27;;;10.80;99.90;;;;;;5074382;28;20211;-82
2023/04/19 10:49:12;;;;;;;9.20;8.30;;;10.70;99.90;;;;;;5074287;28;20201;-83
2023/04/19 10:51:47;;;;;;;9.13;8.32;;;10.60;99.90;;;;;;5074121;28;20255;-82
2023/04/19 10:54:30;;;;;;;11.32;9.82;;;10.50;99.90;;;;;;5073723;28;20221;-82
2023/04/19 10:57:03;;;;;;;13.80;10.27;;;10.50;99.90;;;;;;5074725;28;20213;-82
2023/04/19 10:59:33;;;;;;;9.60;8.77;;;10.50;99.90;;;;;;5073996;28;20292;-83
2023/04/19 11:02:02;;;;;;;10.55;9.57;;;10.50;99.90;;;;;;5074068;28;20232;-82
2023/04/19 11:05:00;;;;;;;12.25;10.77;;;10.40;99.90;;;;;;5074081;28;20263;-82
2023/04/19 11:07:29;;;;;;;10.40;9.32;;;10.30;99.90;;;;;;5074141;28;20215;-82
2023/04/19 11:09:57;;;;;;;9.98;9.10;;;10.40;99.90;;;;;;5074116;28;20215;-82
2023/04/19 11:12:26;;;;;;;11.38;10.32;;;10.50;99.90;;;;;;5073825;28;20220;-82
2023/04/19 11:14:58;;;;;;;11.27;10.18;;;10.50;99.90;;;;;;5073284;28;20303;-82
2023/04/19 11:17:31;;;;;;;16.90;10.27;;;10.70;99.90;;;;;;5073980;28;20205;-82
2023/04/19 11:20:05;;;;;;;10.45;9.55;;;10.80;99.90;;;;;;5073849;28;20205;-82
2023/04/19 11:22:35;;;;;;;10.73;9.55;;;10.80;99.90;;;;;;5073574;28;20228;-81
2023/04/19 11:25:08;;;;;;;10.77;8.93;;;11.00;99.90;;;;;;5073717;28;20261;-82
2023/04/19 11:27:37;;;;;;;9.77;8.82;;;11.10;99.90;;;;;;5073706;28;20288;-82
2023/04/19 11:30:07;;;;;;;8.20;7.50;;;11.20;99.90;;;;;;5073384;28;20301;-82
2023/04/19 11:32:36;;;;;;;7.68;7.07;;;11.20;99.90;;;;;;5073218;28;20229;-82
2023/04/19 11:35:08;;;;;;;8.05;7.30;;;11.10;99.90;;;;;;5073250;28;20224;-81
2023/04/19 11:37:38;;;;;;;7.65;6.95;;;11.10;99.90;;;;;;5073517;28;20216;-81
2023/04/19 11:40:08;;;;;;;8.48;7.68;;;11.00;99.90;;;;;;5073086;28;20209;-81
2023/04/19 11:42:36;;;;;;;7.60;6.90;;;11.00;99.90;;;;;;5072899;28;20225;-81
2023/04/19 11:45:06;;;;;;;6.68;6.05;;;11.00;99.90;;;;;;5072201;28;20215;-81
2023/04/19 11:47:49;;;;;;;7.38;6.53;;;11.00;99.90;;;;;;5073363;28;20295;-82
2023/04/19 11:50:39;;;;;;;6.95;6.32;;;11.00;99.90;;;;;;5073551;28;20224;-81
2023/04/19 11:53:12;;;;;;;7.55;5.97;;;11.00;99.90;;;;;;5072904;28;20240;-82
2023/04/19 11:55:43;;;;;;;6.88;6.18;;;11.10;99.90;;;;;;5072839;28;20209;-82
2023/04/19 11:58:24;;;;;;;5.63;5.13;;;11.10;99.90;;;;;;5072910;28;20211;-82
2023/04/19 12:00:52;;;;;;;9.90;6.25;;;11.20;99.90;;;;;;5073001;28;20205;-82
2023/04/19 12:03:23;;;;;;;5.78;5.20;;;11.30;99.90;;;;;;5073200;28;20225;-82
2023/04/19 12:05:56;;;;;;;5.43;4.93;;;11.40;99.90;;;;;;5072817;28;20259;-82
2023/04/19 12:08:32;;;;;;;5.25;4.75;;;11.50;99.90;;;;;;5072917;28;20292;-82
2023/04/19 12:11:02;;;;;;;5.25;4.47;;;11.60;99.90;;;;;;5073050;28;20263;-82
2023/04/19 12:13:31;;;;;;;7.30;4.75;;;11.60;99.90;;;;;;5072455;28;20237;-82
2023/04/19 12:16:00;;;;;;;4.72;4.30;;;11.70;99.90;;;;;;5073051;28;20210;-82
2023/04/19 12:18:42;;;;;;;5.68;5.18;;;11.70;99.90;;;;;;5072774;28;20209;-82
2023/04/19 12:21:12;;;;;;;4.45;4.05;;;11.80;99.90;;;;;;5072498;28;20208;-82
2023/04/19 12:23:40;;;;;;;4.45;4.10;;;11.80;99.90;;;;;;5072378;28;20251;-82
2023/04/19 12:26:09;;;;;;;5.05;4.65;;;11.70;99.90;;;;;;5072690;28;20209;-81
2023/04/19 12:28:38;;;;;;;4.55;4.15;;;11.60;99.90;;;;;;5072755;28;20354;-82
2023/04/19 12:31:06;;;;;;;4.53;4.15;;;11.50;99.90;;;;;;5072778;28;20213;-82
2023/04/19 12:33:35;;;;;;;7.15;4.30;;;11.40;99.90;;;;;;5071787;28;20240;-82
2023/04/19 12:36:03;;;;;;;4.32;4.03;;;11.30;99.90;;;;;;5072647;28;20209;-83
2023/04/19 12:38:33;;;;;;;5.70;5.10;;;11.30;99.90;;;;;;5072600;28;20205;-83
2023/04/19 12:41:01;;;;;;;4.35;3.97;;;11.20;99.90;;;;;;5072468;28;20209;-82
2023/04/19 12:43:30;;;;;;;5.05;4.65;;;11.20;99.90;;;;;;5072199;28;20247;-83
2023/04/19 12:45:59;;;;;;;4.72;4.35;;;11.20;99.90;;;;;;5072462;28;20193;-82
2023/04/19 12:48:28;;;;;;;4.95;4.55;;;11.10;99.90;;;;;;5072241;28;20242;-82
2023/04/19 12:50:56;;;;;;;5.15;4.75;;;11.00;99.90;;;;;;5072363;28;20221;-82
2023/04/19 12:53:25;;;;;;;5.88;5.13;;;11.00;99.90;;;;;;5072548;28;20228;-82
2023/04/19 12:55:54;;;;;;;5.25;4.78;;;10.90;99.90;;;;;;5072371;28;20236;-82